sensor_id;sensor_type;location;lat;lon;timestamp;temperature;humidity
22562;DHT22;11447;50.562;8.504;2023-06-22T16:39:21;26.50;65.10
22562;DHT22;11447;50.562;8.504;2023-06-22T16:41:51;26.60;66.70
22562;DHT22;11447;50.562;8.504;2023-06-22T16:44:17;26.60;67.30
22562;DHT22;11447;50.562;8.504;2023-06-22T16:46:45;26.50;66.30
22562;DHT22;11447;50.562;8.504;2023-06-22T16:49:12;26.40;68.10
22562;DHT22;11447;50.562;8.504;2023-06-22T16:51:38;26.40;67.30
22562;DHT22;11447;50.562;8.504;2023-06-22T16:54:05;26.40;66.90
22562;DHT22;11447;50.562;8.504;2023-06-22T16:56:33;26.60;68.10
22562;DHT22;11447;50.562;8.504;2023-06-22T16:59:00;26.70;66.30
22562;DHT22;11447;50.562;8.504;2023-06-22T17:01:33;26.90;65.80
22562;DHT22;11447;50.562;8.504;2023-06-22T17:06:27;26.70;66.90
22562;DHT22;11447;50.562;8.504;2023-06-22T17:08:55;26.40;67.50
22562;DHT22;11447;50.562;8.504;2023-06-22T17:11:23;26.20;68.10
22562;DHT22;11447;50.562;8.504;2023-06-22T17:13:49;26.20;68.00
22562;DHT22;11447;50.562;8.504;2023-06-22T17:16:16;26.20;68.20
22562;DHT22;11447;50.562;8.504;2023-06-22T17:18:43;26.00;68.20
22562;DHT22;11447;50.562;8.504;2023-06-22T17:21:15;26.20;67.90
22562;DHT22;11447;50.562;8.504;2023-06-22T17:23:47;26.00;68.10
22562;DHT22;11447;50.562;8.504;2023-06-22T17:26:16;25.90;68.30
22562;DHT22;11447;50.562;8.504;2023-06-22T17:28:49;26.00;68.70
22562;DHT22;11447;50.562;8.504;2023-06-22T17:31:17;25.90;68.60
22562;DHT22;11447;50.562;8.504;2023-06-22T17:33:45;26.00;68.70
22562;DHT22;11447;50.562;8.504;2023-06-22T17:36:14;25.80;68.90
22562;DHT22;11447;50.562;8.504;2023-06-22T17:38:41;25.80;70.30
22562;DHT22;11447;50.562;8.504;2023-06-22T17:41:08;25.70;70.50
22562;DHT22;11447;50.562;8.504;2023-06-22T17:43:45;25.60;71.20
22562;DHT22;11447;50.562;8.504;2023-06-22T17:46:15;25.50;70.90
22562;DHT22;11447;50.562;8.504;2023-06-22T17:48:44;25.60;70.40
22562;DHT22;11447;50.562;8.504;2023-06-22T17:51:13;25.60;70.60
22562;DHT22;11447;50.562;8.504;2023-06-22T17:53:39;25.60;70.80
22562;DHT22;11447;50.562;8.504;2023-06-22T17:56:13;25.40;71.70
22562;DHT22;11447;50.562;8.504;2023-06-22T17:58:52;25.30;72.40
22562;DHT22;11447;50.562;8.504;2023-06-22T18:04:04;25.30;73.00
22562;DHT22;11447;50.562;8.504;2023-06-22T18:06:32;25.30;73.50
22562;DHT22;11447;50.562;8.504;2023-06-22T18:08:59;25.00;74.50
22562;DHT22;11447;50.562;8.504;2023-06-22T18:14:05;24.80;75.10
22562;DHT22;11447;50.562;8.504;2023-06-22T18:16:34;24.30;76.20
22562;DHT22;11447;50.562;8.504;2023-06-22T18:19:04;24.60;76.10
22562;DHT22;11447;50.562;8.504;2023-06-22T18:21:30;24.40;76.50
22562;DHT22;11447;50.562;8.504;2023-06-22T18:23:57;24.60;75.60
22562;DHT22;11447;50.562;8.504;2023-06-22T18:26:25;24.90;75.80
22562;DHT22;11447;50.562;8.504;2023-06-22T18:28:53;24.80;75.60
22562;DHT22;11447;50.562;8.504;2023-06-22T18:31:20;24.70;75.90
22562;DHT22;11447;50.562;8.504;2023-06-22T18:33:51;24.90;75.60
22562;DHT22;11447;50.562;8.504;2023-06-22T18:36:23;24.80;75.20
22562;DHT22;11447;50.562;8.504;2023-06-22T18:38:53;24.80;75.80
22562;DHT22;11447;50.562;8.504;2023-06-22T18:41:39;24.90;75.10
22562;DHT22;11447;50.562;8.504;2023-06-22T18:44:26;24.80;74.80
22562;DHT22;11447;50.562;8.504;2023-06-22T18:47:00;24.70;75.00
22562;DHT22;11447;50.562;8.504;2023-06-22T18:49:30;24.70;75.00
22562;DHT22;11447;50.562;8.504;2023-06-22T18:54:29;24.80;74.50
22562;DHT22;11447;50.562;8.504;2023-06-22T18:56:56;24.50;74.50
22562;DHT22;11447;50.562;8.504;2023-06-22T19:02:09;24.00;76.30
22562;DHT22;11447;50.562;8.504;2023-06-22T19:04:43;24.00;76.80
22562;DHT22;11447;50.562;8.504;2023-06-22T19:07:12;24.00;77.10
22562;DHT22;11447;50.562;8.504;2023-06-22T19:09:39;23.90;77.10
22562;DHT22;11447;50.562;8.504;2023-06-22T19:12:16;23.90;77.00
22562;DHT22;11447;50.562;8.504;2023-06-22T19:14:58;24.10;76.60
22562;DHT22;11447;50.562;8.504;2023-06-22T19:17:25;24.00;76.40
22562;DHT22;11447;50.562;8.504;2023-06-22T19:19:52;23.90;76.10
22562;DHT22;11447;50.562;8.504;2023-06-22T19:22:19;23.60;77.30
22562;DHT22;11447;50.562;8.504;2023-06-22T19:24:49;23.70;77.40
22562;DHT22;11447;50.562;8.504;2023-06-22T19:27:19;23.70;77.50
22562;DHT22;11447;50.562;8.504;2023-06-22T19:29:46;23.90;77.10
22562;DHT22;11447;50.562;8.504;2023-06-22T19:32:19;23.90;77.00
22562;DHT22;11447;50.562;8.504;2023-06-22T19:34:45;23.80;76.90
22562;DHT22;11447;50.562;8.504;2023-06-22T19:37:14;23.60;77.20
22562;DHT22;11447;50.562;8.504;2023-06-22T19:39:41;23.70;77.30
22562;DHT22;11447;50.562;8.504;2023-06-22T19:42:08;23.70;77.30
22562;DHT22;11447;50.562;8.504;2023-06-22T19:44:35;23.70;77.40
22562;DHT22;11447;50.562;8.504;2023-06-22T19:47:01;23.60;77.30
22562;DHT22;11447;50.562;8.504;2023-06-22T19:49:28;23.70;77.40
22562;DHT22;11447;50.562;8.504;2023-06-22T19:51:55;23.70;77.20
22562;DHT22;11447;50.562;8.504;2023-06-22T19:54:31;23.70;77.50
22562;DHT22;11447;50.562;8.504;2023-06-22T19:57:01;23.70;77.50
22562;DHT22;11447;50.562;8.504;2023-06-22T19:59:30;23.40;77.40
22562;DHT22;11447;50.562;8.504;2023-06-22T20:01:59;23.20;77.40
22562;DHT22;11447;50.562;8.504;2023-06-22T20:04:26;23.20;77.40
22562;DHT22;11447;50.562;8.504;2023-06-22T20:07:05;23.40;77.40
22562;DHT22;11447;50.562;8.504;2023-06-22T20:09:34;23.50;77.30
22562;DHT22;11447;50.562;8.504;2023-06-22T20:12:08;23.60;77.40
22562;DHT22;11447;50.562;8.504;2023-06-22T20:14:34;23.50;77.40
22562;DHT22;11447;50.562;8.504;2023-06-22T20:17:03;23.40;77.40
22562;DHT22;11447;50.562;8.504;2023-06-22T20:19:37;23.50;77.40
22562;DHT22;11447;50.562;8.504;2023-06-22T20:22:07;23.50;77.40
22562;DHT22;11447;50.562;8.504;2023-06-22T20:24:33;23.60;77.40
22562;DHT22;11447;50.562;8.504;2023-06-22T20:27:00;23.60;77.40
22562;DHT22;11447;50.562;8.504;2023-06-22T20:29:30;23.50;77.40
22562;DHT22;11447;50.562;8.504;2023-06-22T20:32:07;23.60;77.40
22562;DHT22;11447;50.562;8.504;2023-06-22T20:37:04;23.80;77.40
22562;DHT22;11447;50.562;8.504;2023-06-22T20:39:30;23.80;77.10
22562;DHT22;11447;50.562;8.504;2023-06-22T20:41:58;23.80;77.20
22562;DHT22;11447;50.562;8.504;2023-06-22T20:44:25;23.90;77.40
22562;DHT22;11447;50.562;8.504;2023-06-22T20:46:54;23.80;77.20
22562;DHT22;11447;50.562;8.504;2023-06-22T20:49:21;23.90;77.40
22562;DHT22;11447;50.562;8.504;2023-06-22T20:51:48;23.90;76.80
22562;DHT22;11447;50.562;8.504;2023-06-22T20:54:15;23.90;76.40
22562;DHT22;11447;50.562;8.504;2023-06-22T20:56:44;23.90;76.40
22562;DHT22;11447;50.562;8.504;2023-06-22T20:59:11;23.90;76.70
22562;DHT22;11447;50.562;8.504;2023-06-22T21:01:38;23.90;76.20
22562;DHT22;11447;50.562;8.504;2023-06-22T21:04:05;23.90;76.50
22562;DHT22;11447;50.562;8.504;2023-06-22T21:06:32;23.90;77.00
22562;DHT22;11447;50.562;8.504;2023-06-22T21:08:58;23.80;77.20
22562;DHT22;11447;50.562;8.504;2023-06-22T21:11:25;23.80;77.10
22562;DHT22;11447;50.562;8.504;2023-06-22T21:13:52;23.90;77.20
22562;DHT22;11447;50.562;8.504;2023-06-22T21:16:20;23.80;77.00
22562;DHT22;11447;50.562;8.504;2023-06-22T21:18:47;23.90;77.00
22562;DHT22;11447;50.562;8.504;2023-06-22T21:21:13;23.80;77.20
22562;DHT22;11447;50.562;8.504;2023-06-22T21:23:40;23.90;76.70
22562;DHT22;11447;50.562;8.504;2023-06-22T21:26:07;23.80;77.30
22562;DHT22;11447;50.562;8.504;2023-06-22T21:28:33;23.90;77.00
22562;DHT22;11447;50.562;8.504;2023-06-22T21:31:00;23.90;77.20
22562;DHT22;11447;50.562;8.504;2023-06-22T21:33:27;23.80;77.20
22562;DHT22;11447;50.562;8.504;2023-06-22T21:35:56;23.90;77.00
22562;DHT22;11447;50.562;8.504;2023-06-22T21:38:23;23.90;77.10
22562;DHT22;11447;50.562;8.504;2023-06-22T21:40:49;23.80;77.00
22562;DHT22;11447;50.562;8.504;2023-06-22T21:43:18;23.90;76.90
22562;DHT22;11447;50.562;8.504;2023-06-22T21:45:47;23.90;77.30
22562;DHT22;11447;50.562;8.504;2023-06-22T21:48:16;23.90;77.00
22562;DHT22;11447;50.562;8.504;2023-06-22T21:50:43;24.00;77.10
22562;DHT22;11447;50.562;8.504;2023-06-22T21:53:12;23.90;77.10
22562;DHT22;11447;50.562;8.504;2023-06-22T21:55:39;23.90;76.20
22562;DHT22;11447;50.562;8.504;2023-06-22T21:58:08;23.80;75.90
22562;DHT22;11447;50.562;8.504;2023-06-22T22:00:37;23.90;75.50
22562;DHT22;11447;50.562;8.504;2023-06-22T22:03:04;23.80;73.80
22562;DHT22;11447;50.562;8.504;2023-06-22T22:05:30;23.70;73.20
22562;DHT22;11447;50.562;8.504;2023-06-22T22:07:58;23.70;72.00
22562;DHT22;11447;50.562;8.504;2023-06-22T22:10:24;23.70;72.10
22562;DHT22;11447;50.562;8.504;2023-06-22T22:12:51;23.60;72.00
22562;DHT22;11447;50.562;8.504;2023-06-22T22:15:18;23.60;71.60
22562;DHT22;11447;50.562;8.504;2023-06-22T22:17:47;23.60;71.80
22562;DHT22;11447;50.562;8.504;2023-06-22T22:20:14;23.40;71.70
22562;DHT22;11447;50.562;8.504;2023-06-22T22:22:40;23.40;71.40
22562;DHT22;11447;50.562;8.504;2023-06-22T22:25:07;23.40;71.40
22562;DHT22;11447;50.562;8.504;2023-06-22T22:27:34;23.30;71.00
22562;DHT22;11447;50.562;8.504;2023-06-22T22:30:03;23.40;71.00
22562;DHT22;11447;50.562;8.504;2023-06-22T22:32:30;23.30;70.70
22562;DHT22;11447;50.562;8.504;2023-06-22T22:34:57;23.30;70.30
22562;DHT22;11447;50.562;8.504;2023-06-22T22:37:23;23.30;70.00
22562;DHT22;11447;50.562;8.504;2023-06-22T22:39:50;23.30;69.90
22562;DHT22;11447;50.562;8.504;2023-06-22T22:42:19;23.10;70.20
22562;DHT22;11447;50.562;8.504;2023-06-22T22:44:46;23.00;70.60
22562;DHT22;11447;50.562;8.504;2023-06-22T22:47:13;23.00;70.50
22562;DHT22;11447;50.562;8.504;2023-06-22T22:49:39;22.90;70.60
22562;DHT22;11447;50.562;8.504;2023-06-22T22:52:08;22.90;70.30
22562;DHT22;11447;50.562;8.504;2023-06-22T22:54:37;22.90;70.50
22562;DHT22;11447;50.562;8.504;2023-06-22T22:57:09;22.80;70.80
22562;DHT22;11447;50.562;8.504;2023-06-22T22:59:36;22.70;71.30
22562;DHT22;11447;50.562;8.504;2023-06-22T23:02:05;22.50;71.70
22562;DHT22;11447;50.562;8.504;2023-06-22T23:04:32;22.40;72.00
22562;DHT22;11447;50.562;8.504;2023-06-22T23:07:01;22.40;72.10
22562;DHT22;11447;50.562;8.504;2023-06-22T23:09:28;22.30;72.50
22562;DHT22;11447;50.562;8.504;2023-06-22T23:11:57;22.20;72.60
22562;DHT22;11447;50.562;8.504;2023-06-22T23:14:23;22.10;73.40
22562;DHT22;11447;50.562;8.504;2023-06-22T23:16:50;21.90;73.60
22562;DHT22;11447;50.562;8.504;2023-06-22T23:19:17;22.00;73.90
22562;DHT22;11447;50.562;8.504;2023-06-22T23:21:44;21.80;74.10
22562;DHT22;11447;50.562;8.504;2023-06-22T23:24:10;21.90;74.30
22562;DHT22;11447;50.562;8.504;2023-06-22T23:26:37;21.80;74.50
22562;DHT22;11447;50.562;8.504;2023-06-22T23:29:04;21.70;74.60
22562;DHT22;11447;50.562;8.504;2023-06-22T23:31:31;21.80;74.80
22562;DHT22;11447;50.562;8.504;2023-06-22T23:34:00;21.60;74.70
22562;DHT22;11447;50.562;8.504;2023-06-22T23:36:30;21.60;75.10
22562;DHT22;11447;50.562;8.504;2023-06-22T23:38:57;21.60;74.80
22562;DHT22;11447;50.562;8.504;2023-06-22T23:41:23;21.60;74.90
22562;DHT22;11447;50.562;8.504;2023-06-22T23:43:52;21.50;74.80
22562;DHT22;11447;50.562;8.504;2023-06-22T23:46:21;21.40;74.80
22562;DHT22;11447;50.562;8.504;2023-06-22T23:48:48;21.30;75.20
22562;DHT22;11447;50.562;8.504;2023-06-22T23:51:15;21.40;74.80
22562;DHT22;11447;50.562;8.504;2023-06-22T23:53:43;21.30;75.00
22562;DHT22;11447;50.562;8.504;2023-06-22T23:56:09;21.30;75.00
22562;DHT22;11447;50.562;8.504;2023-06-22T23:58:36;21.30;74.70
